sensor_id;sensor_type;location;lat;lon;timestamp;P1;durP1;ratioP1;P2;durP2;ratioP2
38034;SDS011;23841;48.524;1.342;2023-09-07T00:01:25;4.82;;;2.70;;
38034;SDS011;23841;48.524;1.342;2023-09-07T00:03:50;4.47;;;2.17;;
38034;SDS011;23841;48.524;1.342;2023-09-07T00:06:16;4.13;;;2.10;;
38034;SDS011;23841;48.524;1.342;2023-09-07T00:08:41;4.38;;;2.40;;
38034;SDS011;23841;48.524;1.342;2023-09-07T00:11:07;3.28;;;2.00;;
38034;SDS011;23841;48.524;1.342;2023-09-07T00:13:34;4.57;;;2.30;;
38034;SDS011;23841;48.524;1.342;2023-09-07T00:16:00;3.95;;;2.10;;
38034;SDS011;23841;48.524;1.342;2023-09-07T00:18:27;3.80;;;2.47;;
38034;SDS011;23841;48.524;1.342;2023-09-07T00:20:53;4.22;;;2.40;;
38034;SDS011;23841;48.524;1.342;2023-09-07T00:23:19;3.17;;;2.08;;
38034;SDS011;23841;48.524;1.342;2023-09-07T00:25:46;3.30;;;2.13;;
38034;SDS011;23841;48.524;1.342;2023-09-07T00:28:11;5.05;;;2.58;;
38034;SDS011;23841;48.524;1.342;2023-09-07T00:30:37;3.50;;;2.28;;
38034;SDS011;23841;48.524;1.342;2023-09-07T00:33:03;4.28;;;2.10;;
38034;SDS011;23841;48.524;1.342;2023-09-07T00:35:29;4.05;;;2.15;;
38034;SDS011;23841;48.524;1.342;2023-09-07T00:37:54;4.40;;;2.40;;
38034;SDS011;23841;48.524;1.342;2023-09-07T00:40:20;3.65;;;2.28;;
38034;SDS011;23841;48.524;1.342;2023-09-07T00:42:46;4.20;;;2.75;;
38034;SDS011;23841;48.524;1.342;2023-09-07T00:45:12;4.32;;;2.30;;
38034;SDS011;23841;48.524;1.342;2023-09-07T00:47:38;4.35;;;2.60;;
38034;SDS011;23841;48.524;1.342;2023-09-07T00:50:05;3.50;;;2.30;;
38034;SDS011;23841;48.524;1.342;2023-09-07T00:52:31;3.70;;;2.42;;
38034;SDS011;23841;48.524;1.342;2023-09-07T00:54:58;3.15;;;2.10;;
38034;SDS011;23841;48.524;1.342;2023-09-07T00:57:26;3.58;;;2.50;;
38034;SDS011;23841;48.524;1.342;2023-09-07T00:59:51;3.25;;;2.03;;
38034;SDS011;23841;48.524;1.342;2023-09-07T01:02:17;4.80;;;2.30;;
38034;SDS011;23841;48.524;1.342;2023-09-07T01:04:43;3.85;;;2.10;;
38034;SDS011;23841;48.524;1.342;2023-09-07T01:07:11;4.03;;;2.20;;
38034;SDS011;23841;48.524;1.342;2023-09-07T01:09:42;4.30;;;2.03;;
38034;SDS011;23841;48.524;1.342;2023-09-07T01:12:15;2.67;;;1.90;;
38034;SDS011;23841;48.524;1.342;2023-09-07T01:14:41;3.63;;;2.20;;
38034;SDS011;23841;48.524;1.342;2023-09-07T01:17:07;3.10;;;2.03;;
38034;SDS011;23841;48.524;1.342;2023-09-07T01:19:35;3.30;;;2.17;;
38034;SDS011;23841;48.524;1.342;2023-09-07T01:22:01;3.85;;;2.35;;
38034;SDS011;23841;48.524;1.342;2023-09-07T01:24:27;3.25;;;2.25;;
38034;SDS011;23841;48.524;1.342;2023-09-07T01:26:55;4.15;;;2.15;;
38034;SDS011;23841;48.524;1.342;2023-09-07T01:29:22;3.72;;;2.10;;
38034;SDS011;23841;48.524;1.342;2023-09-07T01:31:47;3.85;;;2.08;;
38034;SDS011;23841;48.524;1.342;2023-09-07T01:34:13;4.00;;;1.92;;
38034;SDS011;23841;48.524;1.342;2023-09-07T01:36:40;3.00;;;2.15;;
38034;SDS011;23841;48.524;1.342;2023-09-07T01:39:06;3.50;;;2.00;;
38034;SDS011;23841;48.524;1.342;2023-09-07T01:41:31;5.35;;;2.08;;
38034;SDS011;23841;48.524;1.342;2023-09-07T01:43:58;3.45;;;2.03;;
38034;SDS011;23841;48.524;1.342;2023-09-07T01:46:24;4.00;;;2.60;;
38034;SDS011;23841;48.524;1.342;2023-09-07T01:48:50;3.20;;;1.90;;
38034;SDS011;23841;48.524;1.342;2023-09-07T01:51:15;3.38;;;2.30;;
38034;SDS011;23841;48.524;1.342;2023-09-07T01:53:41;3.78;;;2.10;;
38034;SDS011;23841;48.524;1.342;2023-09-07T01:56:06;3.90;;;2.15;;
38034;SDS011;23841;48.524;1.342;2023-09-07T01:58:32;3.88;;;2.15;;
38034;SDS011;23841;48.524;1.342;2023-09-07T02:00:59;3.55;;;2.13;;
38034;SDS011;23841;48.524;1.342;2023-09-07T02:03:25;4.22;;;2.20;;
38034;SDS011;23841;48.524;1.342;2023-09-07T02:05:52;5.35;;;2.55;;
38034;SDS011;23841;48.524;1.342;2023-09-07T02:08:18;4.00;;;2.15;;
38034;SDS011;23841;48.524;1.342;2023-09-07T02:10:43;3.25;;;2.05;;
38034;SDS011;23841;48.524;1.342;2023-09-07T02:13:08;4.40;;;2.63;;
38034;SDS011;23841;48.524;1.342;2023-09-07T02:15:36;4.28;;;2.30;;
38034;SDS011;23841;48.524;1.342;2023-09-07T02:18:03;4.30;;;2.13;;
38034;SDS011;23841;48.524;1.342;2023-09-07T02:20:31;3.67;;;2.60;;
38034;SDS011;23841;48.524;1.342;2023-09-07T02:22:59;5.13;;;2.10;;
38034;SDS011;23841;48.524;1.342;2023-09-07T02:25:24;3.72;;;2.13;;
38034;SDS011;23841;48.524;1.342;2023-09-07T02:27:50;3.80;;;2.45;;
38034;SDS011;23841;48.524;1.342;2023-09-07T02:30:15;3.15;;;2.05;;
38034;SDS011;23841;48.524;1.342;2023-09-07T02:32:42;3.35;;;1.90;;
38034;SDS011;23841;48.524;1.342;2023-09-07T02:35:08;6.63;;;2.30;;
38034;SDS011;23841;48.524;1.342;2023-09-07T02:37:35;3.22;;;1.92;;
38034;SDS011;23841;48.524;1.342;2023-09-07T02:40:00;3.65;;;1.70;;
38034;SDS011;23841;48.524;1.342;2023-09-07T02:42:26;3.40;;;1.95;;
38034;SDS011;23841;48.524;1.342;2023-09-07T02:44:51;4.60;;;2.45;;
38034;SDS011;23841;48.524;1.342;2023-09-07T02:47:17;5.50;;;2.47;;
38034;SDS011;23841;48.524;1.342;2023-09-07T02:49:42;6.45;;;2.30;;
38034;SDS011;23841;48.524;1.342;2023-09-07T02:52:08;4.82;;;2.00;;
38034;SDS011;23841;48.524;1.342;2023-09-07T02:54:33;3.85;;;2.15;;
38034;SDS011;23841;48.524;1.342;2023-09-07T02:56:58;6.50;;;2.60;;
38034;SDS011;23841;48.524;1.342;2023-09-07T02:59:24;3.55;;;2.08;;
38034;SDS011;23841;48.524;1.342;2023-09-07T03:01:49;3.60;;;2.30;;
38034;SDS011;23841;48.524;1.342;2023-09-07T03:04:15;3.63;;;2.03;;
38034;SDS011;23841;48.524;1.342;2023-09-07T03:06:40;4.68;;;2.40;;
38034;SDS011;23841;48.524;1.342;2023-09-07T03:09:06;4.10;;;2.10;;
38034;SDS011;23841;48.524;1.342;2023-09-07T03:11:34;3.63;;;2.28;;
38034;SDS011;23841;48.524;1.342;2023-09-07T03:14:00;4.13;;;2.28;;
38034;SDS011;23841;48.524;1.342;2023-09-07T03:16:25;3.45;;;2.05;;
38034;SDS011;23841;48.524;1.342;2023-09-07T03:18:51;3.05;;;2.13;;
38034;SDS011;23841;48.524;1.342;2023-09-07T03:21:16;3.65;;;2.15;;
38034;SDS011;23841;48.524;1.342;2023-09-07T03:23:42;3.78;;;2.13;;
38034;SDS011;23841;48.524;1.342;2023-09-07T03:26:09;4.38;;;2.35;;
38034;SDS011;23841;48.524;1.342;2023-09-07T03:28:35;3.75;;;2.42;;
38034;SDS011;23841;48.524;1.342;2023-09-07T03:31:01;3.28;;;2.10;;
38034;SDS011;23841;48.524;1.342;2023-09-07T03:33:26;3.40;;;1.85;;
38034;SDS011;23841;48.524;1.342;2023-09-07T03:35:52;3.50;;;2.40;;
38034;SDS011;23841;48.524;1.342;2023-09-07T03:38:17;3.35;;;2.10;;
38034;SDS011;23841;48.524;1.342;2023-09-07T03:40:43;3.70;;;2.50;;
38034;SDS011;23841;48.524;1.342;2023-09-07T03:43:09;2.85;;;2.08;;
38034;SDS011;23841;48.524;1.342;2023-09-07T03:45:34;3.40;;;2.03;;
38034;SDS011;23841;48.524;1.342;2023-09-07T03:48:00;3.42;;;2.30;;
38034;SDS011;23841;48.524;1.342;2023-09-07T03:50:25;4.70;;;2.30;;
38034;SDS011;23841;48.524;1.342;2023-09-07T03:52:50;5.80;;;2.58;;
38034;SDS011;23841;48.524;1.342;2023-09-07T03:55:16;3.88;;;2.20;;
38034;SDS011;23841;48.524;1.342;2023-09-07T03:57:42;4.18;;;2.25;;
38034;SDS011;23841;48.524;1.342;2023-09-07T04:00:07;4.03;;;2.35;;
38034;SDS011;23841;48.524;1.342;2023-09-07T04:02:33;3.53;;;2.30;;
38034;SDS011;23841;48.524;1.342;2023-09-07T04:04:59;3.30;;;2.30;;
38034;SDS011;23841;48.524;1.342;2023-09-07T04:07:26;3.78;;;2.05;;
38034;SDS011;23841;48.524;1.342;2023-09-07T04:09:52;3.83;;;2.40;;
38034;SDS011;23841;48.524;1.342;2023-09-07T04:12:17;2.92;;;2.05;;
38034;SDS011;23841;48.524;1.342;2023-09-07T04:14:43;3.17;;;2.10;;
38034;SDS011;23841;48.524;1.342;2023-09-07T04:17:09;5.28;;;2.28;;
38034;SDS011;23841;48.524;1.342;2023-09-07T04:19:35;3.60;;;2.40;;
38034;SDS011;23841;48.524;1.342;2023-09-07T04:22:00;4.10;;;2.25;;
38034;SDS011;23841;48.524;1.342;2023-09-07T04:24:27;3.60;;;2.30;;
38034;SDS011;23841;48.524;1.342;2023-09-07T04:26:53;4.00;;;2.30;;
38034;SDS011;23841;48.524;1.342;2023-09-07T04:29:18;3.92;;;2.47;;
38034;SDS011;23841;48.524;1.342;2023-09-07T04:31:44;3.80;;;2.35;;
38034;SDS011;23841;48.524;1.342;2023-09-07T04:34:09;4.80;;;2.33;;
38034;SDS011;23841;48.524;1.342;2023-09-07T04:36:34;3.25;;;2.17;;
38034;SDS011;23841;48.524;1.342;2023-09-07T04:39:01;3.72;;;2.35;;
38034;SDS011;23841;48.524;1.342;2023-09-07T04:41:28;3.10;;;2.20;;
38034;SDS011;23841;48.524;1.342;2023-09-07T04:43:54;5.35;;;2.53;;
38034;SDS011;23841;48.524;1.342;2023-09-07T04:46:20;3.60;;;2.20;;
38034;SDS011;23841;48.524;1.342;2023-09-07T04:48:47;3.15;;;2.30;;
38034;SDS011;23841;48.524;1.342;2023-09-07T04:51:12;4.57;;;2.47;;
38034;SDS011;23841;48.524;1.342;2023-09-07T04:53:38;4.75;;;2.38;;
38034;SDS011;23841;48.524;1.342;2023-09-07T04:56:04;3.72;;;2.00;;
38034;SDS011;23841;48.524;1.342;2023-09-07T04:58:31;3.83;;;2.25;;
38034;SDS011;23841;48.524;1.342;2023-09-07T05:01:06;4.18;;;2.25;;
38034;SDS011;23841;48.524;1.342;2023-09-07T05:03:34;4.63;;;2.35;;
38034;SDS011;23841;48.524;1.342;2023-09-07T05:06:00;3.17;;;1.98;;
38034;SDS011;23841;48.524;1.342;2023-09-07T05:08:26;4.00;;;2.42;;
38034;SDS011;23841;48.524;1.342;2023-09-07T05:10:55;3.35;;;2.40;;
38034;SDS011;23841;48.524;1.342;2023-09-07T05:13:25;4.18;;;2.38;;
38034;SDS011;23841;48.524;1.342;2023-09-07T05:15:52;3.33;;;2.17;;
38034;SDS011;23841;48.524;1.342;2023-09-07T05:18:19;4.32;;;2.55;;
38034;SDS011;23841;48.524;1.342;2023-09-07T05:20:45;3.72;;;2.35;;
38034;SDS011;23841;48.524;1.342;2023-09-07T05:23:15;5.10;;;2.20;;
38034;SDS011;23841;48.524;1.342;2023-09-07T05:25:43;3.83;;;2.17;;
38034;SDS011;23841;48.524;1.342;2023-09-07T05:28:12;4.50;;;2.95;;
38034;SDS011;23841;48.524;1.342;2023-09-07T05:30:39;3.50;;;2.00;;
38034;SDS011;23841;48.524;1.342;2023-09-07T05:33:05;4.50;;;2.30;;
38034;SDS011;23841;48.524;1.342;2023-09-07T05:35:31;4.75;;;2.75;;
38034;SDS011;23841;48.524;1.342;2023-09-07T05:37:57;4.38;;;2.50;;
38034;SDS011;23841;48.524;1.342;2023-09-07T05:40:23;3.45;;;2.25;;
38034;SDS011;23841;48.524;1.342;2023-09-07T05:42:49;4.00;;;2.60;;
38034;SDS011;23841;48.524;1.342;2023-09-07T05:45:14;4.57;;;2.67;;
38034;SDS011;23841;48.524;1.342;2023-09-07T05:47:40;3.00;;;1.80;;
38034;SDS011;23841;48.524;1.342;2023-09-07T05:50:05;3.47;;;2.47;;
38034;SDS011;23841;48.524;1.342;2023-09-07T05:52:31;4.72;;;2.67;;
38034;SDS011;23841;48.524;1.342;2023-09-07T05:54:57;3.95;;;2.40;;
38034;SDS011;23841;48.524;1.342;2023-09-07T05:57:22;3.63;;;2.22;;
38034;SDS011;23841;48.524;1.342;2023-09-07T05:59:47;4.50;;;2.63;;
38034;SDS011;23841;48.524;1.342;2023-09-07T06:02:13;4.57;;;2.60;;
38034;SDS011;23841;48.524;1.342;2023-09-07T06:04:38;4.25;;;2.50;;
38034;SDS011;23841;48.524;1.342;2023-09-07T06:07:04;4.47;;;3.00;;
38034;SDS011;23841;48.524;1.342;2023-09-07T06:09:29;2.88;;;1.98;;
38034;SDS011;23841;48.524;1.342;2023-09-07T06:11:54;3.28;;;2.10;;
38034;SDS011;23841;48.524;1.342;2023-09-07T06:14:20;3.40;;;2.40;;
38034;SDS011;23841;48.524;1.342;2023-09-07T06:16:45;5.28;;;2.60;;
38034;SDS011;23841;48.524;1.342;2023-09-07T06:19:11;4.93;;;2.72;;
38034;SDS011;23841;48.524;1.342;2023-09-07T06:21:36;4.22;;;2.45;;
38034;SDS011;23841;48.524;1.342;2023-09-07T06:24:02;4.03;;;2.42;;
38034;SDS011;23841;48.524;1.342;2023-09-07T06:26:27;4.43;;;2.55;;
38034;SDS011;23841;48.524;1.342;2023-09-07T06:28:53;4.25;;;2.78;;
38034;SDS011;23841;48.524;1.342;2023-09-07T06:31:18;4.82;;;2.78;;
38034;SDS011;23841;48.524;1.342;2023-09-07T06:33:44;3.25;;;2.13;;
38034;SDS011;23841;48.524;1.342;2023-09-07T06:36:09;4.18;;;2.40;;
38034;SDS011;23841;48.524;1.342;2023-09-07T06:38:34;4.10;;;2.50;;
38034;SDS011;23841;48.524;1.342;2023-09-07T06:41:00;3.97;;;2.45;;
38034;SDS011;23841;48.524;1.342;2023-09-07T06:43:25;2.95;;;1.92;;
38034;SDS011;23841;48.524;1.342;2023-09-07T06:45:51;5.30;;;2.33;;
38034;SDS011;23841;48.524;1.342;2023-09-07T06:48:16;6.00;;;2.78;;
38034;SDS011;23841;48.524;1.342;2023-09-07T06:50:41;4.95;;;2.40;;
38034;SDS011;23841;48.524;1.342;2023-09-07T06:53:07;3.92;;;2.50;;
38034;SDS011;23841;48.524;1.342;2023-09-07T06:55:33;5.57;;;2.65;;
38034;SDS011;23841;48.524;1.342;2023-09-07T06:57:58;3.70;;;2.28;;
38034;SDS011;23841;48.524;1.342;2023-09-07T07:00:26;4.97;;;2.72;;
38034;SDS011;23841;48.524;1.342;2023-09-07T07:02:52;4.22;;;2.45;;
38034;SDS011;23841;48.524;1.342;2023-09-07T07:05:18;3.47;;;2.33;;
38034;SDS011;23841;48.524;1.342;2023-09-07T07:07:43;5.05;;;2.67;;
38034;SDS011;23841;48.524;1.342;2023-09-07T07:10:09;6.00;;;2.80;;
38034;SDS011;23841;48.524;1.342;2023-09-07T07:12:34;3.72;;;2.60;;
38034;SDS011;23841;48.524;1.342;2023-09-07T07:15:00;3.60;;;2.40;;
38034;SDS011;23841;48.524;1.342;2023-09-07T07:17:26;3.92;;;2.33;;
38034;SDS011;23841;48.524;1.342;2023-09-07T07:19:52;3.78;;;2.38;;
38034;SDS011;23841;48.524;1.342;2023-09-07T07:22:17;5.05;;;2.63;;
38034;SDS011;23841;48.524;1.342;2023-09-07T07:24:43;3.85;;;2.22;;
38034;SDS011;23841;48.524;1.342;2023-09-07T07:27:08;4.28;;;2.50;;
38034;SDS011;23841;48.524;1.342;2023-09-07T07:29:36;4.07;;;2.75;;
38034;SDS011;23841;48.524;1.342;2023-09-07T07:32:02;3.42;;;2.28;;
38034;SDS011;23841;48.524;1.342;2023-09-07T07:34:28;4.53;;;3.00;;
38034;SDS011;23841;48.524;1.342;2023-09-07T07:36:54;6.03;;;2.33;;
38034;SDS011;23841;48.524;1.342;2023-09-07T07:39:19;3.53;;;2.15;;
38034;SDS011;23841;48.524;1.342;2023-09-07T07:41:45;5.22;;;2.50;;
38034;SDS011;23841;48.524;1.342;2023-09-07T07:44:11;3.75;;;2.40;;
38034;SDS011;23841;48.524;1.342;2023-09-07T07:46:36;4.75;;;3.03;;
38034;SDS011;23841;48.524;1.342;2023-09-07T07:49:02;4.97;;;3.00;;
38034;SDS011;23841;48.524;1.342;2023-09-07T07:51:27;4.25;;;2.80;;
38034;SDS011;23841;48.524;1.342;2023-09-07T07:53:53;4.32;;;2.95;;
38034;SDS011;23841;48.524;1.342;2023-09-07T07:56:20;4.65;;;2.58;;
38034;SDS011;23841;48.524;1.342;2023-09-07T07:58:46;6.15;;;3.15;;
38034;SDS011;23841;48.524;1.342;2023-09-07T08:01:15;4.00;;;2.50;;
38034;SDS011;23841;48.524;1.342;2023-09-07T08:03:41;6.10;;;2.28;;
38034;SDS011;23841;48.524;1.342;2023-09-07T08:06:08;3.95;;;2.33;;
38034;SDS011;23841;48.524;1.342;2023-09-07T08:08:33;4.20;;;2.45;;
38034;SDS011;23841;48.524;1.342;2023-09-07T08:10:59;3.50;;;2.40;;
38034;SDS011;23841;48.524;1.342;2023-09-07T08:13:29;4.20;;;2.95;;
38034;SDS011;23841;48.524;1.342;2023-09-07T08:15:55;4.60;;;2.88;;
38034;SDS011;23841;48.524;1.342;2023-09-07T08:18:20;3.97;;;2.40;;
38034;SDS011;23841;48.524;1.342;2023-09-07T08:20:46;3.42;;;2.28;;
38034;SDS011;23841;48.524;1.342;2023-09-07T08:23:11;4.68;;;3.13;;
38034;SDS011;23841;48.524;1.342;2023-09-07T08:25:36;3.70;;;2.63;;
38034;SDS011;23841;48.524;1.342;2023-09-07T08:28:04;4.57;;;2.63;;
38034;SDS011;23841;48.524;1.342;2023-09-07T08:30:30;4.47;;;2.70;;
38034;SDS011;23841;48.524;1.342;2023-09-07T08:32:56;7.00;;;2.63;;
38034;SDS011;23841;48.524;1.342;2023-09-07T08:35:22;5.95;;;3.08;;
38034;SDS011;23841;48.524;1.342;2023-09-07T08:37:52;4.88;;;3.42;;
38034;SDS011;23841;48.524;1.342;2023-09-07T08:40:19;5.88;;;2.40;;
38034;SDS011;23841;48.524;1.342;2023-09-07T08:42:44;4.50;;;2.70;;
38034;SDS011;23841;48.524;1.342;2023-09-07T08:45:10;6.10;;;3.00;;
38034;SDS011;23841;48.524;1.342;2023-09-07T08:47:38;4.40;;;2.60;;
38034;SDS011;23841;48.524;1.342;2023-09-07T08:50:04;3.90;;;2.67;;
38034;SDS011;23841;48.524;1.342;2023-09-07T08:52:34;4.10;;;2.63;;
38034;SDS011;23841;48.524;1.342;2023-09-07T08:55:00;5.40;;;2.83;;
38034;SDS011;23841;48.524;1.342;2023-09-07T08:57:29;4.72;;;2.90;;
38034;SDS011;23841;48.524;1.342;2023-09-07T08:59:56;3.42;;;2.60;;
38034;SDS011;23841;48.524;1.342;2023-09-07T09:02:21;5.07;;;3.08;;
38034;SDS011;23841;48.524;1.342;2023-09-07T09:04:47;5.55;;;2.70;;
38034;SDS011;23841;48.524;1.342;2023-09-07T09:07:12;4.40;;;3.00;;
38034;SDS011;23841;48.524;1.342;2023-09-07T09:09:38;4.72;;;2.75;;
38034;SDS011;23841;48.524;1.342;2023-09-07T09:12:07;4.85;;;3.05;;
38034;SDS011;23841;48.524;1.342;2023-09-07T09:14:34;5.68;;;2.50;;
38034;SDS011;23841;48.524;1.342;2023-09-07T09:16:59;5.15;;;2.55;;
38034;SDS011;23841;48.524;1.342;2023-09-07T09:19:31;6.60;;;2.80;;
38034;SDS011;23841;48.524;1.342;2023-09-07T09:21:57;4.57;;;2.83;;
38034;SDS011;23841;48.524;1.342;2023-09-07T09:24:23;4.10;;;2.53;;
38034;SDS011;23841;48.524;1.342;2023-09-07T09:26:49;5.10;;;2.55;;
38034;SDS011;23841;48.524;1.342;2023-09-07T09:29:14;4.75;;;2.70;;
38034;SDS011;23841;48.524;1.342;2023-09-07T09:31:40;6.18;;;2.80;;
38034;SDS011;23841;48.524;1.342;2023-09-07T09:34:06;3.95;;;2.70;;
38034;SDS011;23841;48.524;1.342;2023-09-07T09:36:35;4.53;;;2.58;;
38034;SDS011;23841;48.524;1.342;2023-09-07T09:39:02;4.13;;;2.53;;
38034;SDS011;23841;48.524;1.342;2023-09-07T09:41:31;3.67;;;2.47;;
38034;SDS011;23841;48.524;1.342;2023-09-07T09:43:58;5.05;;;2.50;;
38034;SDS011;23841;48.524;1.342;2023-09-07T09:46:27;3.72;;;2.22;;
38034;SDS011;23841;48.524;1.342;2023-09-07T09:48:54;3.42;;;2.22;;
38034;SDS011;23841;48.524;1.342;2023-09-07T09:51:21;4.43;;;2.55;;
38034;SDS011;23841;48.524;1.342;2023-09-07T09:53:47;3.70;;;2.30;;
38034;SDS011;23841;48.524;1.342;2023-09-07T09:56:14;3.85;;;2.47;;
38034;SDS011;23841;48.524;1.342;2023-09-07T09:58:39;4.65;;;2.47;;
38034;SDS011;23841;48.524;1.342;2023-09-07T10:01:05;2.88;;;1.83;;
38034;SDS011;23841;48.524;1.342;2023-09-07T10:03:33;4.85;;;2.70;;
38034;SDS011;23841;48.524;1.342;2023-09-07T10:06:11;3.78;;;2.33;;
38034;SDS011;23841;48.524;1.342;2023-09-07T10:09:04;3.97;;;2.50;;
38034;SDS011;23841;48.524;1.342;2023-09-07T10:11:32;3.80;;;2.40;;
38034;SDS011;23841;48.524;1.342;2023-09-07T10:14:02;3.00;;;1.85;;
38034;SDS011;23841;48.524;1.342;2023-09-07T10:16:28;2.60;;;1.65;;
38034;SDS011;23841;48.524;1.342;2023-09-07T10:18:54;4.28;;;2.05;;
38034;SDS011;23841;48.524;1.342;2023-09-07T10:21:20;3.65;;;2.22;;
38034;SDS011;23841;48.524;1.342;2023-09-07T10:23:50;3.10;;;1.77;;
38034;SDS011;23841;48.524;1.342;2023-09-07T10:26:18;3.42;;;1.95;;
38034;SDS011;23841;48.524;1.342;2023-09-07T10:28:46;3.83;;;2.00;;
38034;SDS011;23841;48.524;1.342;2023-09-07T10:31:13;3.00;;;1.95;;
38034;SDS011;23841;48.524;1.342;2023-09-07T10:33:43;2.80;;;1.88;;
38034;SDS011;23841;48.524;1.342;2023-09-07T10:36:08;3.75;;;1.92;;
38034;SDS011;23841;48.524;1.342;2023-09-07T10:38:49;2.47;;;1.63;;
38034;SDS011;23841;48.524;1.342;2023-09-07T10:41:18;2.78;;;1.88;;
38034;SDS011;23841;48.524;1.342;2023-09-07T10:43:53;3.42;;;1.95;;
38034;SDS011;23841;48.524;1.342;2023-09-07T10:46:21;2.20;;;1.45;;
38034;SDS011;23841;48.524;1.342;2023-09-07T10:48:48;3.17;;;1.70;;
38034;SDS011;23841;48.524;1.342;2023-09-07T10:51:16;2.72;;;1.65;;
38034;SDS011;23841;48.524;1.342;2023-09-07T10:53:42;2.88;;;1.90;;
38034;SDS011;23841;48.524;1.342;2023-09-07T10:56:07;3.10;;;1.95;;
38034;SDS011;23841;48.524;1.342;2023-09-07T10:58:34;4.72;;;2.38;;
38034;SDS011;23841;48.524;1.342;2023-09-07T11:01:04;3.20;;;1.75;;
38034;SDS011;23841;48.524;1.342;2023-09-07T11:03:31;2.83;;;1.58;;
38034;SDS011;23841;48.524;1.342;2023-09-07T11:05:59;3.28;;;1.95;;
38034;SDS011;23841;48.524;1.342;2023-09-07T11:08:31;3.63;;;1.67;;
38034;SDS011;23841;48.524;1.342;2023-09-07T11:10:58;2.55;;;1.58;;
38034;SDS011;23841;48.524;1.342;2023-09-07T11:13:24;3.38;;;1.88;;
38034;SDS011;23841;48.524;1.342;2023-09-07T11:15:53;3.17;;;2.08;;
38034;SDS011;23841;48.524;1.342;2023-09-07T11:18:20;2.80;;;1.73;;
38034;SDS011;23841;48.524;1.342;2023-09-07T11:20:46;2.47;;;1.60;;
38034;SDS011;23841;48.524;1.342;2023-09-07T11:23:13;2.85;;;1.70;;
38034;SDS011;23841;48.524;1.342;2023-09-07T11:25:39;3.40;;;1.73;;
38034;SDS011;23841;48.524;1.342;2023-09-07T11:28:05;3.33;;;1.70;;
38034;SDS011;23841;48.524;1.342;2023-09-07T11:30:31;3.85;;;1.65;;
38034;SDS011;23841;48.524;1.342;2023-09-07T11:33:07;2.47;;;1.60;;
38034;SDS011;23841;48.524;1.342;2023-09-07T11:35:33;3.03;;;1.70;;
38034;SDS011;23841;48.524;1.342;2023-09-07T11:38:00;5.07;;;2.08;;
38034;SDS011;23841;48.524;1.342;2023-09-07T11:40:28;3.83;;;1.70;;
38034;SDS011;23841;48.524;1.342;2023-09-07T11:42:54;4.30;;;1.95;;
38034;SDS011;23841;48.524;1.342;2023-09-07T11:45:20;2.78;;;1.83;;
38034;SDS011;23841;48.524;1.342;2023-09-07T11:47:45;3.15;;;1.67;;
38034;SDS011;23841;48.524;1.342;2023-09-07T11:50:11;2.47;;;1.70;;
38034;SDS011;23841;48.524;1.342;2023-09-07T11:52:36;2.90;;;1.77;;
38034;SDS011;23841;48.524;1.342;2023-09-07T11:55:02;2.45;;;1.70;;
38034;SDS011;23841;48.524;1.342;2023-09-07T11:57:28;3.80;;;1.85;;
38034;SDS011;23841;48.524;1.342;2023-09-07T11:59:54;3.65;;;1.60;;
38034;SDS011;23841;48.524;1.342;2023-09-07T12:02:19;2.22;;;1.42;;
38034;SDS011;23841;48.524;1.342;2023-09-07T12:04:46;2.60;;;1.55;;
38034;SDS011;23841;48.524;1.342;2023-09-07T12:07:13;3.78;;;1.60;;
38034;SDS011;23841;48.524;1.342;2023-09-07T12:09:39;3.72;;;1.90;;
38034;SDS011;23841;48.524;1.342;2023-09-07T12:12:04;2.65;;;1.95;;
38034;SDS011;23841;48.524;1.342;2023-09-07T12:14:30;3.05;;;2.00;;
38034;SDS011;23841;48.524;1.342;2023-09-07T12:16:56;5.55;;;1.70;;
38034;SDS011;23841;48.524;1.342;2023-09-07T12:19:22;3.53;;;1.60;;
38034;SDS011;23841;48.524;1.342;2023-09-07T12:21:47;5.13;;;1.70;;
38034;SDS011;23841;48.524;1.342;2023-09-07T12:24:13;3.97;;;1.73;;
38034;SDS011;23841;48.524;1.342;2023-09-07T12:26:38;4.88;;;1.90;;
38034;SDS011;23841;48.524;1.342;2023-09-07T12:29:04;4.03;;;2.00;;
38034;SDS011;23841;48.524;1.342;2023-09-07T12:31:29;4.75;;;2.17;;
38034;SDS011;23841;48.524;1.342;2023-09-07T12:33:56;2.40;;;1.65;;
38034;SDS011;23841;48.524;1.342;2023-09-07T12:36:22;4.05;;;1.98;;
38034;SDS011;23841;48.524;1.342;2023-09-07T12:38:47;3.28;;;2.00;;
38034;SDS011;23841;48.524;1.342;2023-09-07T12:41:12;3.30;;;2.13;;
38034;SDS011;23841;48.524;1.342;2023-09-07T12:43:38;5.10;;;1.90;;
38034;SDS011;23841;48.524;1.342;2023-09-07T12:46:04;3.05;;;1.88;;
38034;SDS011;23841;48.524;1.342;2023-09-07T12:48:29;3.33;;;1.98;;
38034;SDS011;23841;48.524;1.342;2023-09-07T12:50:54;2.55;;;1.70;;
38034;SDS011;23841;48.524;1.342;2023-09-07T12:53:20;4.68;;;2.33;;
38034;SDS011;23841;48.524;1.342;2023-09-07T12:55:50;3.90;;;2.28;;
38034;SDS011;23841;48.524;1.342;2023-09-07T12:58:18;4.53;;;2.10;;
38034;SDS011;23841;48.524;1.342;2023-09-07T13:00:44;3.17;;;2.10;;
38034;SDS011;23841;48.524;1.342;2023-09-07T13:03:10;2.55;;;1.83;;
38034;SDS011;23841;48.524;1.342;2023-09-07T13:05:36;3.80;;;1.98;;
38034;SDS011;23841;48.524;1.342;2023-09-07T13:08:02;5.78;;;2.10;;
38034;SDS011;23841;48.524;1.342;2023-09-07T13:10:28;3.47;;;2.30;;
38034;SDS011;23841;48.524;1.342;2023-09-07T13:12:54;5.60;;;2.40;;
38034;SDS011;23841;48.524;1.342;2023-09-07T13:15:20;3.22;;;1.95;;
38034;SDS011;23841;48.524;1.342;2023-09-07T13:17:45;3.90;;;2.00;;
38034;SDS011;23841;48.524;1.342;2023-09-07T13:20:11;4.30;;;2.20;;
38034;SDS011;23841;48.524;1.342;2023-09-07T13:22:37;3.10;;;2.00;;
38034;SDS011;23841;48.524;1.342;2023-09-07T13:25:03;4.35;;;2.05;;
38034;SDS011;23841;48.524;1.342;2023-09-07T13:27:30;3.25;;;2.00;;
38034;SDS011;23841;48.524;1.342;2023-09-07T13:29:55;5.28;;;2.28;;
38034;SDS011;23841;48.524;1.342;2023-09-07T13:32:22;3.85;;;2.08;;
38034;SDS011;23841;48.524;1.342;2023-09-07T13:34:48;3.90;;;2.22;;
38034;SDS011;23841;48.524;1.342;2023-09-07T13:37:13;4.28;;;2.58;;
38034;SDS011;23841;48.524;1.342;2023-09-07T13:39:39;3.47;;;2.10;;
38034;SDS011;23841;48.524;1.342;2023-09-07T13:42:04;3.47;;;2.05;;
38034;SDS011;23841;48.524;1.342;2023-09-07T13:44:30;5.20;;;2.40;;
38034;SDS011;23841;48.524;1.342;2023-09-07T13:46:55;3.47;;;1.80;;
38034;SDS011;23841;48.524;1.342;2023-09-07T13:49:21;7.13;;;1.98;;
38034;SDS011;23841;48.524;1.342;2023-09-07T13:51:48;2.85;;;2.10;;
38034;SDS011;23841;48.524;1.342;2023-09-07T13:54:13;5.07;;;2.22;;
38034;SDS011;23841;48.524;1.342;2023-09-07T13:56:39;4.22;;;2.15;;
38034;SDS011;23841;48.524;1.342;2023-09-07T13:59:07;5.32;;;2.38;;
38034;SDS011;23841;48.524;1.342;2023-09-07T14:01:33;6.22;;;2.35;;
38034;SDS011;23841;48.524;1.342;2023-09-07T14:03:58;3.60;;;1.77;;
38034;SDS011;23841;48.524;1.342;2023-09-07T14:06:24;3.78;;;2.30;;
38034;SDS011;23841;48.524;1.342;2023-09-07T14:08:50;3.53;;;2.15;;
38034;SDS011;23841;48.524;1.342;2023-09-07T14:11:16;3.05;;;1.80;;
38034;SDS011;23841;48.524;1.342;2023-09-07T14:13:42;4.00;;;2.13;;
38034;SDS011;23841;48.524;1.342;2023-09-07T14:16:07;4.47;;;2.40;;
38034;SDS011;23841;48.524;1.342;2023-09-07T14:18:35;4.07;;;2.10;;
38034;SDS011;23841;48.524;1.342;2023-09-07T14:21:02;3.05;;;2.00;;
38034;SDS011;23841;48.524;1.342;2023-09-07T14:23:29;4.68;;;2.58;;
38034;SDS011;23841;48.524;1.342;2023-09-07T14:25:55;4.05;;;2.47;;
38034;SDS011;23841;48.524;1.342;2023-09-07T14:28:20;4.28;;;1.98;;
38034;SDS011;23841;48.524;1.342;2023-09-07T14:30:46;5.43;;;2.20;;
38034;SDS011;23841;48.524;1.342;2023-09-07T14:33:12;3.90;;;1.92;;
38034;SDS011;23841;48.524;1.342;2023-09-07T14:35:39;5.25;;;2.17;;
38034;SDS011;23841;48.524;1.342;2023-09-07T14:38:04;3.20;;;1.85;;
38034;SDS011;23841;48.524;1.342;2023-09-07T14:40:30;5.93;;;2.17;;
38034;SDS011;23841;48.524;1.342;2023-09-07T14:42:56;4.75;;;1.98;;